sensor_id;sensor_type;location;lat;lon;timestamp;temperature;humidity
28823;DHT22;15961;54.678;9.110;2022-10-16T00:00:36;12.00;99.90
28823;DHT22;15961;54.678;9.110;2022-10-16T00:03:02;11.90;99.90
28823;DHT22;15961;54.678;9.110;2022-10-16T00:05:28;11.90;99.90
28823;DHT22;15961;54.678;9.110;2022-10-16T00:07:54;11.90;99.90
28823;DHT22;15961;54.678;9.110;2022-10-16T00:10:20;11.80;99.90
28823;DHT22;15961;54.678;9.110;2022-10-16T00:12:45;11.90;99.90
28823;DHT22;15961;54.678;9.110;2022-10-16T00:15:11;11.90;99.90
28823;DHT22;15961;54.678;9.110;2022-10-16T00:17:37;11.90;99.90
28823;DHT22;15961;54.678;9.110;2022-10-16T00:20:02;11.90;99.90
28823;DHT22;15961;54.678;9.110;2022-10-16T00:22:28;11.90;99.90
28823;DHT22;15961;54.678;9.110;2022-10-16T00:24:54;11.80;99.90
28823;DHT22;15961;54.678;9.110;2022-10-16T00:27:19;11.90;99.90
28823;DHT22;15961;54.678;9.110;2022-10-16T00:29:49;11.90;99.90
28823;DHT22;15961;54.678;9.110;2022-10-16T00:32:14;11.80;99.90
28823;DHT22;15961;54.678;9.110;2022-10-16T00:34:40;11.80;99.90
28823;DHT22;15961;54.678;9.110;2022-10-16T00:37:05;11.80;99.90
28823;DHT22;15961;54.678;9.110;2022-10-16T00:39:31;11.90;99.90
28823;DHT22;15961;54.678;9.110;2022-10-16T00:41:56;11.90;99.90
28823;DHT22;15961;54.678;9.110;2022-10-16T00:47:18;11.80;99.90
28823;DHT22;15961;54.678;9.110;2022-10-16T00:49:46;11.80;99.90
28823;DHT22;15961;54.678;9.110;2022-10-16T00:52:13;11.80;99.90
28823;DHT22;15961;54.678;9.110;2022-10-16T00:54:39;11.80;99.90
28823;DHT22;15961;54.678;9.110;2022-10-16T00:57:06;11.80;99.90
28823;DHT22;15961;54.678;9.110;2022-10-16T00:59:35;11.80;99.90
28823;DHT22;15961;54.678;9.110;2022-10-16T01:02:02;11.80;99.90
28823;DHT22;15961;54.678;9.110;2022-10-16T01:04:32;11.80;99.90
28823;DHT22;15961;54.678;9.110;2022-10-16T01:12:58;11.70;99.90
28823;DHT22;15961;54.678;9.110;2022-10-16T01:18:08;11.70;99.90
28823;DHT22;15961;54.678;9.110;2022-10-16T01:20:47;11.70;99.90
28823;DHT22;15961;54.678;9.110;2022-10-16T01:23:23;11.80;99.90
28823;DHT22;15961;54.678;9.110;2022-10-16T01:28:41;11.70;99.90
28823;DHT22;15961;54.678;9.110;2022-10-16T01:31:11;11.70;99.90
28823;DHT22;15961;54.678;9.110;2022-10-16T01:33:46;11.70;99.90
28823;DHT22;15961;54.678;9.110;2022-10-16T01:36:21;11.70;99.90
28823;DHT22;15961;54.678;9.110;2022-10-16T01:38:51;11.80;99.90
28823;DHT22;15961;54.678;9.110;2022-10-16T01:41:26;11.70;99.90
28823;DHT22;15961;54.678;9.110;2022-10-16T01:44:10;11.80;99.90
28823;DHT22;15961;54.678;9.110;2022-10-16T01:46:39;11.80;99.90
28823;DHT22;15961;54.678;9.110;2022-10-16T01:49:06;11.80;99.90
28823;DHT22;15961;54.678;9.110;2022-10-16T01:51:35;11.80;99.90
28823;DHT22;15961;54.678;9.110;2022-10-16T01:54:02;11.70;99.90
28823;DHT22;15961;54.678;9.110;2022-10-16T01:56:28;11.80;99.90
28823;DHT22;15961;54.678;9.110;2022-10-16T01:59:01;11.80;99.90
28823;DHT22;15961;54.678;9.110;2022-10-16T02:01:31;11.70;99.90
28823;DHT22;15961;54.678;9.110;2022-10-16T02:04:07;11.70;99.90
28823;DHT22;15961;54.678;9.110;2022-10-16T02:06:34;11.70;99.90
28823;DHT22;15961;54.678;9.110;2022-10-16T02:09:00;11.80;99.90
28823;DHT22;15961;54.678;9.110;2022-10-16T02:11:25;11.70;99.90
28823;DHT22;15961;54.678;9.110;2022-10-16T02:13:55;11.80;99.90
28823;DHT22;15961;54.678;9.110;2022-10-16T02:16:37;11.70;99.90
28823;DHT22;15961;54.678;9.110;2022-10-16T02:19:04;11.70;99.90
28823;DHT22;15961;54.678;9.110;2022-10-16T02:21:34;11.80;99.90
28823;DHT22;15961;54.678;9.110;2022-10-16T02:24:34;11.70;99.90
28823;DHT22;15961;54.678;9.110;2022-10-16T02:27:09;11.60;99.90
28823;DHT22;15961;54.678;9.110;2022-10-16T02:29:40;11.70;99.90
28823;DHT22;15961;54.678;9.110;2022-10-16T02:32:10;11.70;99.90
28823;DHT22;15961;54.678;9.110;2022-10-16T02:34:38;11.70;99.90
28823;DHT22;15961;54.678;9.110;2022-10-16T02:37:05;11.70;99.90
28823;DHT22;15961;54.678;9.110;2022-10-16T02:39:32;11.70;99.90
28823;DHT22;15961;54.678;9.110;2022-10-16T02:41:58;11.70;99.90
28823;DHT22;15961;54.678;9.110;2022-10-16T02:44:23;11.70;99.90
28823;DHT22;15961;54.678;9.110;2022-10-16T02:46:49;11.70;99.90
28823;DHT22;15961;54.678;9.110;2022-10-16T02:49:15;11.70;99.90
28823;DHT22;15961;54.678;9.110;2022-10-16T02:51:40;11.70;99.90
28823;DHT22;15961;54.678;9.110;2022-10-16T02:54:06;11.70;99.90
28823;DHT22;15961;54.678;9.110;2022-10-16T02:56:31;11.70;99.90
28823;DHT22;15961;54.678;9.110;2022-10-16T02:58:57;11.70;99.90
28823;DHT22;15961;54.678;9.110;2022-10-16T03:01:23;11.60;99.90
28823;DHT22;15961;54.678;9.110;2022-10-16T03:03:49;11.60;99.90
28823;DHT22;15961;54.678;9.110;2022-10-16T03:06:14;11.60;99.90
28823;DHT22;15961;54.678;9.110;2022-10-16T03:08:40;11.70;99.90
28823;DHT22;15961;54.678;9.110;2022-10-16T03:11:05;11.70;99.90
28823;DHT22;15961;54.678;9.110;2022-10-16T03:13:31;11.70;99.90
28823;DHT22;15961;54.678;9.110;2022-10-16T03:15:56;11.70;99.90
28823;DHT22;15961;54.678;9.110;2022-10-16T03:18:22;11.60;99.90
28823;DHT22;15961;54.678;9.110;2022-10-16T03:20:47;11.50;99.90
28823;DHT22;15961;54.678;9.110;2022-10-16T03:23:13;11.60;99.90
28823;DHT22;15961;54.678;9.110;2022-10-16T03:25:39;11.50;99.90
28823;DHT22;15961;54.678;9.110;2022-10-16T03:28:04;11.50;99.90
28823;DHT22;15961;54.678;9.110;2022-10-16T03:30:30;11.50;99.90
28823;DHT22;15961;54.678;9.110;2022-10-16T03:32:56;11.50;99.90
28823;DHT22;15961;54.678;9.110;2022-10-16T03:35:22;11.50;99.90
28823;DHT22;15961;54.678;9.110;2022-10-16T03:37:48;11.40;99.90
28823;DHT22;15961;54.678;9.110;2022-10-16T03:40:14;11.40;99.90
28823;DHT22;15961;54.678;9.110;2022-10-16T03:42:41;11.40;99.90
28823;DHT22;15961;54.678;9.110;2022-10-16T03:45:07;11.40;99.90
28823;DHT22;15961;54.678;9.110;2022-10-16T03:47:33;11.40;99.90
28823;DHT22;15961;54.678;9.110;2022-10-16T03:49:59;11.40;99.90
28823;DHT22;15961;54.678;9.110;2022-10-16T03:52:25;11.40;99.90
28823;DHT22;15961;54.678;9.110;2022-10-16T03:54:51;11.40;99.90
28823;DHT22;15961;54.678;9.110;2022-10-16T03:57:16;11.40;99.90
28823;DHT22;15961;54.678;9.110;2022-10-16T03:59:42;11.40;99.90
28823;DHT22;15961;54.678;9.110;2022-10-16T04:02:07;11.40;99.90
28823;DHT22;15961;54.678;9.110;2022-10-16T04:04:33;11.30;99.90
28823;DHT22;15961;54.678;9.110;2022-10-16T04:06:58;11.30;99.90
28823;DHT22;15961;54.678;9.110;2022-10-16T04:09:24;11.40;99.90
28823;DHT22;15961;54.678;9.110;2022-10-16T04:11:49;11.40;99.90
28823;DHT22;15961;54.678;9.110;2022-10-16T04:14:16;11.40;99.90
28823;DHT22;15961;54.678;9.110;2022-10-16T04:16:41;11.50;99.90
28823;DHT22;15961;54.678;9.110;2022-10-16T04:19:07;11.50;99.90
28823;DHT22;15961;54.678;9.110;2022-10-16T04:21:32;11.50;99.90
28823;DHT22;15961;54.678;9.110;2022-10-16T04:23:58;11.50;99.90
28823;DHT22;15961;54.678;9.110;2022-10-16T04:26:23;11.50;99.90
28823;DHT22;15961;54.678;9.110;2022-10-16T04:28:49;11.50;99.90
28823;DHT22;15961;54.678;9.110;2022-10-16T04:31:14;11.60;99.90
28823;DHT22;15961;54.678;9.110;2022-10-16T04:33:42;11.70;99.90
28823;DHT22;15961;54.678;9.110;2022-10-16T04:36:08;11.80;99.90
28823;DHT22;15961;54.678;9.110;2022-10-16T04:38:33;11.80;99.90
28823;DHT22;15961;54.678;9.110;2022-10-16T04:40:59;11.80;99.90
28823;DHT22;15961;54.678;9.110;2022-10-16T04:43:25;11.90;99.90
28823;DHT22;15961;54.678;9.110;2022-10-16T04:45:51;11.90;99.90
28823;DHT22;15961;54.678;9.110;2022-10-16T04:48:17;12.00;99.90
28823;DHT22;15961;54.678;9.110;2022-10-16T04:50:43;12.10;99.90
28823;DHT22;15961;54.678;9.110;2022-10-16T04:53:09;12.10;99.90
28823;DHT22;15961;54.678;9.110;2022-10-16T04:55:34;12.20;99.90
28823;DHT22;15961;54.678;9.110;2022-10-16T04:58:00;12.20;99.90
28823;DHT22;15961;54.678;9.110;2022-10-16T05:00:25;12.30;99.90
28823;DHT22;15961;54.678;9.110;2022-10-16T05:02:51;12.30;99.90
28823;DHT22;15961;54.678;9.110;2022-10-16T05:05:17;12.30;99.90
28823;DHT22;15961;54.678;9.110;2022-10-16T05:07:45;12.30;99.90
28823;DHT22;15961;54.678;9.110;2022-10-16T05:10:10;12.40;99.90
28823;DHT22;15961;54.678;9.110;2022-10-16T05:12:36;12.30;99.90
28823;DHT22;15961;54.678;9.110;2022-10-16T05:15:02;12.40;99.90
28823;DHT22;15961;54.678;9.110;2022-10-16T05:17:27;12.30;99.90
28823;DHT22;15961;54.678;9.110;2022-10-16T05:19:53;12.30;99.90
28823;DHT22;15961;54.678;9.110;2022-10-16T05:22:18;12.30;99.90
28823;DHT22;15961;54.678;9.110;2022-10-16T05:24:44;12.40;99.90
28823;DHT22;15961;54.678;9.110;2022-10-16T05:27:10;12.30;99.90
28823;DHT22;15961;54.678;9.110;2022-10-16T05:29:36;12.30;99.90
28823;DHT22;15961;54.678;9.110;2022-10-16T05:32:01;12.30;99.90
28823;DHT22;15961;54.678;9.110;2022-10-16T05:34:27;12.20;99.90
28823;DHT22;15961;54.678;9.110;2022-10-16T05:36:52;12.20;99.90
28823;DHT22;15961;54.678;9.110;2022-10-16T05:39:18;12.20;99.90
28823;DHT22;15961;54.678;9.110;2022-10-16T05:41:44;12.10;99.90
28823;DHT22;15961;54.678;9.110;2022-10-16T05:44:10;12.10;99.90
28823;DHT22;15961;54.678;9.110;2022-10-16T05:46:36;12.10;99.90
28823;DHT22;15961;54.678;9.110;2022-10-16T05:49:01;12.20;99.90
28823;DHT22;15961;54.678;9.110;2022-10-16T05:51:27;12.20;99.90
28823;DHT22;15961;54.678;9.110;2022-10-16T05:53:52;12.20;99.90
28823;DHT22;15961;54.678;9.110;2022-10-16T05:56:18;12.20;99.90
28823;DHT22;15961;54.678;9.110;2022-10-16T05:58:43;12.30;99.90
28823;DHT22;15961;54.678;9.110;2022-10-16T06:01:17;12.30;99.90
28823;DHT22;15961;54.678;9.110;2022-10-16T06:03:43;12.30;99.90
28823;DHT22;15961;54.678;9.110;2022-10-16T06:06:10;12.30;99.90
28823;DHT22;15961;54.678;9.110;2022-10-16T06:08:36;12.30;99.90
28823;DHT22;15961;54.678;9.110;2022-10-16T06:11:03;12.30;99.90
28823;DHT22;15961;54.678;9.110;2022-10-16T06:13:29;12.30;99.90
28823;DHT22;15961;54.678;9.110;2022-10-16T06:15:57;12.30;99.90
28823;DHT22;15961;54.678;9.110;2022-10-16T06:18:24;12.30;99.90
28823;DHT22;15961;54.678;9.110;2022-10-16T06:20:49;12.30;99.90
28823;DHT22;15961;54.678;9.110;2022-10-16T06:23:15;12.20;99.90
28823;DHT22;15961;54.678;9.110;2022-10-16T06:25:40;12.20;99.90
28823;DHT22;15961;54.678;9.110;2022-10-16T06:28:06;12.20;99.90
28823;DHT22;15961;54.678;9.110;2022-10-16T06:30:31;12.10;99.90
28823;DHT22;15961;54.678;9.110;2022-10-16T06:32:57;12.20;99.90
28823;DHT22;15961;54.678;9.110;2022-10-16T06:35:22;12.20;99.90
28823;DHT22;15961;54.678;9.110;2022-10-16T06:37:48;12.10;99.90
28823;DHT22;15961;54.678;9.110;2022-10-16T06:40:14;12.10;99.90
28823;DHT22;15961;54.678;9.110;2022-10-16T06:42:40;12.10;99.90
28823;DHT22;15961;54.678;9.110;2022-10-16T06:45:06;12.20;99.90
28823;DHT22;15961;54.678;9.110;2022-10-16T06:47:31;12.20;99.90
28823;DHT22;15961;54.678;9.110;2022-10-16T06:49:57;12.20;99.90
28823;DHT22;15961;54.678;9.110;2022-10-16T06:52:22;12.20;99.90
28823;DHT22;15961;54.678;9.110;2022-10-16T06:54:49;12.30;99.90
28823;DHT22;15961;54.678;9.110;2022-10-16T06:57:15;12.30;99.90
28823;DHT22;15961;54.678;9.110;2022-10-16T06:59:40;12.40;99.90
28823;DHT22;15961;54.678;9.110;2022-10-16T07:02:07;12.50;99.90
28823;DHT22;15961;54.678;9.110;2022-10-16T07:04:33;12.60;99.90
28823;DHT22;15961;54.678;9.110;2022-10-16T07:07:00;12.70;99.90
28823;DHT22;15961;54.678;9.110;2022-10-16T07:09:26;12.80;99.90
28823;DHT22;15961;54.678;9.110;2022-10-16T07:11:51;12.90;99.90
28823;DHT22;15961;54.678;9.110;2022-10-16T07:14:18;13.10;99.90
28823;DHT22;15961;54.678;9.110;2022-10-16T07:16:44;13.20;99.90
28823;DHT22;15961;54.678;9.110;2022-10-16T07:19:10;13.30;99.90
28823;DHT22;15961;54.678;9.110;2022-10-16T07:21:37;13.30;99.90
28823;DHT22;15961;54.678;9.110;2022-10-16T07:24:05;13.20;99.90
28823;DHT22;15961;54.678;9.110;2022-10-16T07:26:34;13.20;99.90
28823;DHT22;15961;54.678;9.110;2022-10-16T07:29:01;13.00;99.90
28823;DHT22;15961;54.678;9.110;2022-10-16T07:31:27;12.90;99.90
28823;DHT22;15961;54.678;9.110;2022-10-16T07:33:53;12.80;99.90
28823;DHT22;15961;54.678;9.110;2022-10-16T07:36:19;12.80;99.90
28823;DHT22;15961;54.678;9.110;2022-10-16T07:38:46;12.70;99.90
28823;DHT22;15961;54.678;9.110;2022-10-16T07:41:13;12.70;99.90
28823;DHT22;15961;54.678;9.110;2022-10-16T07:43:40;12.90;99.90
28823;DHT22;15961;54.678;9.110;2022-10-16T07:46:05;13.10;99.90
28823;DHT22;15961;54.678;9.110;2022-10-16T07:48:33;13.30;99.90
28823;DHT22;15961;54.678;9.110;2022-10-16T07:51:04;13.40;99.90
28823;DHT22;15961;54.678;9.110;2022-10-16T07:53:30;13.60;99.90
28823;DHT22;15961;54.678;9.110;2022-10-16T07:56:00;13.70;99.90
28823;DHT22;15961;54.678;9.110;2022-10-16T07:58:27;13.80;99.90
28823;DHT22;15961;54.678;9.110;2022-10-16T08:00:53;13.60;99.90
28823;DHT22;15961;54.678;9.110;2022-10-16T08:03:18;13.60;99.90
28823;DHT22;15961;54.678;9.110;2022-10-16T08:05:44;13.60;99.90
28823;DHT22;15961;54.678;9.110;2022-10-16T08:08:14;13.70;99.90
28823;DHT22;15961;54.678;9.110;2022-10-16T08:10:39;13.80;99.90
28823;DHT22;15961;54.678;9.110;2022-10-16T08:13:05;13.90;99.90
28823;DHT22;15961;54.678;9.110;2022-10-16T08:15:31;13.90;99.90
28823;DHT22;15961;54.678;9.110;2022-10-16T08:18:01;14.00;99.90
28823;DHT22;15961;54.678;9.110;2022-10-16T08:20:28;14.10;99.90
28823;DHT22;15961;54.678;9.110;2022-10-16T08:22:55;14.10;99.90
28823;DHT22;15961;54.678;9.110;2022-10-16T08:25:22;14.20;99.90
28823;DHT22;15961;54.678;9.110;2022-10-16T08:27:48;14.20;99.90
28823;DHT22;15961;54.678;9.110;2022-10-16T08:30:14;14.30;99.90
28823;DHT22;15961;54.678;9.110;2022-10-16T08:32:40;14.50;99.90
28823;DHT22;15961;54.678;9.110;2022-10-16T08:35:10;14.40;99.90
28823;DHT22;15961;54.678;9.110;2022-10-16T08:37:37;14.50;99.90
28823;DHT22;15961;54.678;9.110;2022-10-16T08:40:04;14.60;99.90
28823;DHT22;15961;54.678;9.110;2022-10-16T08:47:41;14.70;99.90
28823;DHT22;15961;54.678;9.110;2022-10-16T08:50:11;14.90;99.90
28823;DHT22;15961;54.678;9.110;2022-10-16T08:52:41;14.90;99.90
28823;DHT22;15961;54.678;9.110;2022-10-16T08:57:56;15.10;99.90
28823;DHT22;15961;54.678;9.110;2022-10-16T09:00:21;15.10;99.90
28823;DHT22;15961;54.678;9.110;2022-10-16T09:05:52;15.10;99.90
28823;DHT22;15961;54.678;9.110;2022-10-16T09:08:46;15.10;99.90
28823;DHT22;15961;54.678;9.110;2022-10-16T09:14:37;15.10;99.90
28823;DHT22;15961;54.678;9.110;2022-10-16T09:22:31;15.10;99.90
28823;DHT22;15961;54.678;9.110;2022-10-16T09:25:00;15.20;99.90
28823;DHT22;15961;54.678;9.110;2022-10-16T09:27:26;15.20;99.90
28823;DHT22;15961;54.678;9.110;2022-10-16T09:29:52;15.20;99.90
28823;DHT22;15961;54.678;9.110;2022-10-16T09:32:19;15.20;99.90
28823;DHT22;15961;54.678;9.110;2022-10-16T09:34:49;15.10;99.90
28823;DHT22;15961;54.678;9.110;2022-10-16T09:37:18;15.20;99.90
28823;DHT22;15961;54.678;9.110;2022-10-16T09:39:50;15.20;99.90
28823;DHT22;15961;54.678;9.110;2022-10-16T09:42:31;15.30;99.90
28823;DHT22;15961;54.678;9.110;2022-10-16T09:44:57;15.30;99.90
28823;DHT22;15961;54.678;9.110;2022-10-16T09:47:28;15.30;99.90
28823;DHT22;15961;54.678;9.110;2022-10-16T09:49:57;15.30;99.90
28823;DHT22;15961;54.678;9.110;2022-10-16T09:52:24;15.30;99.90
28823;DHT22;15961;54.678;9.110;2022-10-16T09:54:52;15.30;99.90
28823;DHT22;15961;54.678;9.110;2022-10-16T09:57:18;15.30;99.90
28823;DHT22;15961;54.678;9.110;2022-10-16T09:59:49;15.30;99.90
28823;DHT22;15961;54.678;9.110;2022-10-16T10:02:17;15.20;99.90
28823;DHT22;15961;54.678;9.110;2022-10-16T10:04:49;15.30;99.90
28823;DHT22;15961;54.678;9.110;2022-10-16T10:07:24;15.50;99.90
28823;DHT22;15961;54.678;9.110;2022-10-16T10:09:51;15.50;99.90
28823;DHT22;15961;54.678;9.110;2022-10-16T10:12:24;15.60;99.90
28823;DHT22;15961;54.678;9.110;2022-10-16T10:14:50;15.60;99.90
28823;DHT22;15961;54.678;9.110;2022-10-16T10:17:22;15.70;99.90
28823;DHT22;15961;54.678;9.110;2022-10-16T10:22:31;15.60;99.90
28823;DHT22;15961;54.678;9.110;2022-10-16T10:27:50;16.00;99.90
28823;DHT22;15961;54.678;9.110;2022-10-16T10:44:25;16.10;99.90
28823;DHT22;15961;54.678;9.110;2022-10-16T10:47:36;16.10;99.90
28823;DHT22;15961;54.678;9.110;2022-10-16T10:53:35;16.00;99.90
28823;DHT22;15961;54.678;9.110;2022-10-16T11:01:32;15.90;99.90
28823;DHT22;15961;54.678;9.110;2022-10-16T11:04:28;16.00;99.90
28823;DHT22;15961;54.678;9.110;2022-10-16T11:07:05;16.10;99.90
28823;DHT22;15961;54.678;9.110;2022-10-16T11:09:42;16.20;99.90
28823;DHT22;15961;54.678;9.110;2022-10-16T11:12:18;16.30;99.90
28823;DHT22;15961;54.678;9.110;2022-10-16T11:15:10;16.20;99.90
28823;DHT22;15961;54.678;9.110;2022-10-16T11:20:57;16.40;99.90
28823;DHT22;15961;54.678;9.110;2022-10-16T11:23:33;16.40;99.90
28823;DHT22;15961;54.678;9.110;2022-10-16T11:26:05;16.30;99.90
28823;DHT22;15961;54.678;9.110;2022-10-16T11:28:48;16.40;99.90
28823;DHT22;15961;54.678;9.110;2022-10-16T11:31:24;16.40;99.90
28823;DHT22;15961;54.678;9.110;2022-10-16T11:34:06;16.30;99.90
28823;DHT22;15961;54.678;9.110;2022-10-16T11:36:41;16.40;99.90
28823;DHT22;15961;54.678;9.110;2022-10-16T11:39:18;16.50;99.90
28823;DHT22;15961;54.678;9.110;2022-10-16T11:50:02;15.70;99.90
28823;DHT22;15961;54.678;9.110;2022-10-16T11:52:40;15.40;99.90
28823;DHT22;15961;54.678;9.110;2022-10-16T11:55:20;15.20;99.90
28823;DHT22;15961;54.678;9.110;2022-10-16T11:57:56;14.90;99.90
28823;DHT22;15961;54.678;9.110;2022-10-16T12:00:46;14.60;99.90
28823;DHT22;15961;54.678;9.110;2022-10-16T12:06:40;14.50;99.90
28823;DHT22;15961;54.678;9.110;2022-10-16T12:09:29;14.40;99.90
28823;DHT22;15961;54.678;9.110;2022-10-16T12:11:56;14.30;99.90
28823;DHT22;15961;54.678;9.110;2022-10-16T12:14:42;14.40;99.90
28823;DHT22;15961;54.678;9.110;2022-10-16T12:17:25;14.40;99.90
28823;DHT22;15961;54.678;9.110;2022-10-16T12:22:57;14.60;99.90
28823;DHT22;15961;54.678;9.110;2022-10-16T12:25:36;14.70;99.90
28823;DHT22;15961;54.678;9.110;2022-10-16T12:28:19;15.20;99.90
28823;DHT22;15961;54.678;9.110;2022-10-16T12:30:59;15.70;99.90
28823;DHT22;15961;54.678;9.110;2022-10-16T12:33:29;16.10;99.90
28823;DHT22;15961;54.678;9.110;2022-10-16T12:35:55;16.50;99.90
28823;DHT22;15961;54.678;9.110;2022-10-16T12:38:27;16.80;99.90
28823;DHT22;15961;54.678;9.110;2022-10-16T12:41:02;17.20;99.90
28823;DHT22;15961;54.678;9.110;2022-10-16T12:43:38;17.10;99.90
28823;DHT22;15961;54.678;9.110;2022-10-16T12:48:34;17.50;99.90
28823;DHT22;15961;54.678;9.110;2022-10-16T12:51:11;17.30;99.90
28823;DHT22;15961;54.678;9.110;2022-10-16T12:53:37;17.20;99.90
28823;DHT22;15961;54.678;9.110;2022-10-16T12:56:23;17.40;99.90
28823;DHT22;15961;54.678;9.110;2022-10-16T13:01:39;17.50;99.90
28823;DHT22;15961;54.678;9.110;2022-10-16T13:07:03;18.10;99.90
28823;DHT22;15961;54.678;9.110;2022-10-16T13:09:44;18.40;99.90
28823;DHT22;15961;54.678;9.110;2022-10-16T13:18:18;16.80;99.90
28823;DHT22;15961;54.678;9.110;2022-10-16T13:20:56;16.30;99.90
28823;DHT22;15961;54.678;9.110;2022-10-16T13:23:32;16.10;99.90
28823;DHT22;15961;54.678;9.110;2022-10-16T13:28:31;16.00;99.90
28823;DHT22;15961;54.678;9.110;2022-10-16T13:30:58;15.80;99.90
28823;DHT22;15961;54.678;9.110;2022-10-16T13:33:35;15.90;99.90
28823;DHT22;15961;54.678;9.110;2022-10-16T13:36:02;16.30;99.90
28823;DHT22;15961;54.678;9.110;2022-10-16T13:38:34;16.40;99.90
28823;DHT22;15961;54.678;9.110;2022-10-16T13:41:06;17.00;99.90
28823;DHT22;15961;54.678;9.110;2022-10-16T13:43:35;17.30;99.90
28823;DHT22;15961;54.678;9.110;2022-10-16T13:46:06;17.70;99.90
28823;DHT22;15961;54.678;9.110;2022-10-16T13:48:34;18.00;99.90
28823;DHT22;15961;54.678;9.110;2022-10-16T13:53:25;17.00;99.90
28823;DHT22;15961;54.678;9.110;2022-10-16T13:55:51;16.80;99.90
28823;DHT22;15961;54.678;9.110;2022-10-16T13:58:16;16.90;99.90
28823;DHT22;15961;54.678;9.110;2022-10-16T14:01:18;16.90;99.90
28823;DHT22;15961;54.678;9.110;2022-10-16T14:03:45;17.10;99.90
28823;DHT22;15961;54.678;9.110;2022-10-16T14:06:14;17.20;99.90
28823;DHT22;15961;54.678;9.110;2022-10-16T14:08:48;17.00;99.90
28823;DHT22;15961;54.678;9.110;2022-10-16T14:11:21;16.50;99.90
28823;DHT22;15961;54.678;9.110;2022-10-16T14:13:49;16.30;99.90
28823;DHT22;15961;54.678;9.110;2022-10-16T14:16:42;16.60;99.90
28823;DHT22;15961;54.678;9.110;2022-10-16T14:19:28;17.00;99.90
28823;DHT22;15961;54.678;9.110;2022-10-16T14:21:54;17.40;99.90
28823;DHT22;15961;54.678;9.110;2022-10-16T14:24:27;17.50;99.90
28823;DHT22;15961;54.678;9.110;2022-10-16T14:26:56;17.70;99.90
28823;DHT22;15961;54.678;9.110;2022-10-16T14:29:24;17.90;99.90
28823;DHT22;15961;54.678;9.110;2022-10-16T14:32:06;17.70;99.90
28823;DHT22;15961;54.678;9.110;2022-10-16T14:34:37;17.50;99.90
28823;DHT22;15961;54.678;9.110;2022-10-16T14:37:23;17.60;99.90
28823;DHT22;15961;54.678;9.110;2022-10-16T14:39:53;17.70;99.90
28823;DHT22;15961;54.678;9.110;2022-10-16T14:42:21;17.90;99.90
28823;DHT22;15961;54.678;9.110;2022-10-16T14:44:50;17.70;99.90
28823;DHT22;15961;54.678;9.110;2022-10-16T14:47:20;17.60;99.90
28823;DHT22;15961;54.678;9.110;2022-10-16T14:49:49;17.60;99.90
28823;DHT22;15961;54.678;9.110;2022-10-16T14:52:15;17.80;99.90
28823;DHT22;15961;54.678;9.110;2022-10-16T14:54:41;17.60;99.90
28823;DHT22;15961;54.678;9.110;2022-10-16T14:57:17;17.70;99.90
28823;DHT22;15961;54.678;9.110;2022-10-16T14:59:44;17.50;99.90
28823;DHT22;15961;54.678;9.110;2022-10-16T15:02:22;17.40;99.90
28823;DHT22;15961;54.678;9.110;2022-10-16T15:04:50;17.40;99.90
28823;DHT22;15961;54.678;9.110;2022-10-16T15:07:15;17.40;99.90
28823;DHT22;15961;54.678;9.110;2022-10-16T15:09:41;17.00;99.90
28823;DHT22;15961;54.678;9.110;2022-10-16T15:12:06;16.80;99.90
28823;DHT22;15961;54.678;9.110;2022-10-16T15:14:32;16.70;99.90
28823;DHT22;15961;54.678;9.110;2022-10-16T15:16:57;16.70;99.90
28823;DHT22;15961;54.678;9.110;2022-10-16T15:19:23;16.30;99.90
28823;DHT22;15961;54.678;9.110;2022-10-16T15:21:49;15.90;99.90
28823;DHT22;15961;54.678;9.110;2022-10-16T15:24:15;15.50;99.90
28823;DHT22;15961;54.678;9.110;2022-10-16T15:26:40;15.30;99.90
28823;DHT22;15961;54.678;9.110;2022-10-16T15:29:07;15.00;99.90
28823;DHT22;15961;54.678;9.110;2022-10-16T15:31:33;14.70;99.90
28823;DHT22;15961;54.678;9.110;2022-10-16T15:33:58;14.60;99.90
28823;DHT22;15961;54.678;9.110;2022-10-16T15:36:33;14.40;99.90
28823;DHT22;15961;54.678;9.110;2022-10-16T15:39:14;14.20;99.90
28823;DHT22;15961;54.678;9.110;2022-10-16T15:41:40;14.10;99.90
28823;DHT22;15961;54.678;9.110;2022-10-16T15:44:06;14.10;99.90
28823;DHT22;15961;54.678;9.110;2022-10-16T15:46:32;14.10;99.90
28823;DHT22;15961;54.678;9.110;2022-10-16T15:48:59;14.00;99.90
28823;DHT22;15961;54.678;9.110;2022-10-16T15:51:25;13.90;99.90
28823;DHT22;15961;54.678;9.110;2022-10-16T15:53:55;13.90;99.90
28823;DHT22;15961;54.678;9.110;2022-10-16T15:56:21;13.80;99.90
28823;DHT22;15961;54.678;9.110;2022-10-16T15:58:48;13.70;99.90
28823;DHT22;15961;54.678;9.110;2022-10-16T16:01:13;13.60;99.90
28823;DHT22;15961;54.678;9.110;2022-10-16T16:03:39;13.50;99.90
28823;DHT22;15961;54.678;9.110;2022-10-16T16:06:08;13.50;99.90
28823;DHT22;15961;54.678;9.110;2022-10-16T16:08:34;13.30;99.90
28823;DHT22;15961;54.678;9.110;2022-10-16T16:11:09;13.20;99.90
28823;DHT22;15961;54.678;9.110;2022-10-16T16:13:35;13.10;99.90
28823;DHT22;15961;54.678;9.110;2022-10-16T16:16:06;13.00;99.90
28823;DHT22;15961;54.678;9.110;2022-10-16T16:18:31;13.00;99.90
28823;DHT22;15961;54.678;9.110;2022-10-16T16:20:57;12.90;99.90
28823;DHT22;15961;54.678;9.110;2022-10-16T16:23:23;12.80;99.90
28823;DHT22;15961;54.678;9.110;2022-10-16T16:28:35;12.70;99.90
28823;DHT22;15961;54.678;9.110;2022-10-16T16:31:01;12.60;99.90
28823;DHT22;15961;54.678;9.110;2022-10-16T16:33:27;12.50;99.90
28823;DHT22;15961;54.678;9.110;2022-10-16T16:35:59;12.50;99.90
28823;DHT22;15961;54.678;9.110;2022-10-16T16:38:26;12.40;99.90
28823;DHT22;15961;54.678;9.110;2022-10-16T16:40:52;12.40;99.90
28823;DHT22;15961;54.678;9.110;2022-10-16T16:43:18;12.30;99.90
28823;DHT22;15961;54.678;9.110;2022-10-16T16:45:44;12.20;99.90
28823;DHT22;15961;54.678;9.110;2022-10-16T16:48:09;12.10;99.90
28823;DHT22;15961;54.678;9.110;2022-10-16T16:50:36;11.90;99.90
28823;DHT22;15961;54.678;9.110;2022-10-16T16:53:02;11.80;99.90
28823;DHT22;15961;54.678;9.110;2022-10-16T16:55:27;11.70;99.90
28823;DHT22;15961;54.678;9.110;2022-10-16T16:57:53;11.50;99.90
28823;DHT22;15961;54.678;9.110;2022-10-16T17:00:19;11.60;99.90
28823;DHT22;15961;54.678;9.110;2022-10-16T17:02:48;11.60;99.90
28823;DHT22;15961;54.678;9.110;2022-10-16T17:05:13;11.50;99.90
28823;DHT22;15961;54.678;9.110;2022-10-16T17:07:39;11.50;99.90
28823;DHT22;15961;54.678;9.110;2022-10-16T17:10:06;11.40;99.90
28823;DHT22;15961;54.678;9.110;2022-10-16T17:12:32;11.30;99.90
28823;DHT22;15961;54.678;9.110;2022-10-16T17:14:58;11.20;99.90
28823;DHT22;15961;54.678;9.110;2022-10-16T17:17:23;11.10;99.90
28823;DHT22;15961;54.678;9.110;2022-10-16T17:19:50;11.00;99.90
28823;DHT22;15961;54.678;9.110;2022-10-16T17:22:16;10.90;99.90